Terminal Aerodrome Forecast
Issued by NWS Mobile, AL

Home | Current Version | Previous Version | Text Only | Print | Product List | Glossary On
Versions: 1 2 3 4 5 6 7 8 9 10 11 12 13 14 15 16
000
FTUS44 KMOB 270524
TAFMOB
TAF
KMOB 270524Z 2706/2806 11006KT P6SM SKC
     FM271400 15008KT P6SM BKN050
     FM271800 16014G22KT P6SM BKN030 PROB30 2718/2722 4SM SHRA
      BKN020
     FM280300 14006KT P6SM BKN005=

USA.gov is the U.S. government's official web portal to all federal, state and local government web resources and services.